Time;durP1;ratioP1;P1;durP2;ratioP2;P2;SDS_P1;SDS_P2;PMS_P1;PMS_P2;Temp;Humidity;BMP_temperature;BMP_pressure;BME280_temperature;BME280_humidity;BME280_pressure;Samples;Min_cycle;Max_cycle;Signal;HPM_P1;HPM_P2
2022/07/11 00:02:14;;;;;;;0.10;0.10;;;;;;;12.61;100.00;101711.75;5030742;28;20029;-54
2022/07/11 00:04:42;;;;;;;0.60;0.28;;;;;;;12.61;100.00;101707.25;5055192;28;20033;-51
2022/07/11 00:07:07;;;;;;;0.98;0.45;;;;;;;12.65;100.00;101708.56;5058005;28;20028;-56
2022/07/11 00:09:33;;;;;;;0.25;0.25;;;;;;;12.65;100.00;101708.56;5054327;28;20040;-55
2022/07/11 00:11:59;;;;;;;0.10;0.10;;;;;;;12.67;100.00;101700.38;5052643;28;20033;-56
2022/07/11 00:14:24;;;;;;;0.60;0.30;;;;;;;12.60;100.00;101705.59;5053233;28;20035;-54
2022/07/11 00:16:52;;;;;;;2.33;0.30;;;;;;;12.55;100.00;101707.13;5049574;28;20033;-55
2022/07/11 00:19:18;;;;;;;0.55;0.40;;;;;;;12.58;100.00;101707.59;5057448;28;20120;-53
2022/07/11 00:21:43;;;;;;;0.70;0.70;;;;;;;12.61;100.00;101709.06;5049092;28;20082;-56
2022/07/11 00:24:09;;;;;;;0.20;0.10;;;;;;;12.61;100.00;101698.44;5047701;28;20029;-54
2022/07/11 00:26:37;;;;;;;1.42;0.40;;;;;;;12.58;100.00;101696.94;5064789;28;20499;-53
2022/07/11 00:29:04;;;;;;;0.85;0.20;;;;;;;12.59;100.00;101698.59;5056220;28;20025;-53
2022/07/11 00:31:30;;;;;;;1.80;0.20;;;;;;;12.58;100.00;101698.78;5057997;28;20094;-50
2022/07/11 00:33:56;;;;;;;1.17;0.20;;;;;;;12.53;100.00;101698.47;5052760;28;20754;-53
2022/07/11 00:36:22;;;;;;;0.52;0.47;;;;;;;12.46;100.00;101692.19;5044323;28;20070;-49
2022/07/11 00:38:48;;;;;;;0.20;0.20;;;;;;;12.40;100.00;101693.72;5058451;28;20040;-52
2022/07/11 00:41:13;;;;;;;0.13;0.10;;;;;;;12.34;100.00;101689.94;5060712;28;20096;-51
2022/07/11 00:43:40;;;;;;;0.65;0.32;;;;;;;12.29;100.00;101691.41;5052136;28;20033;-54
2022/07/11 00:46:07;;;;;;;0.90;0.85;;;;;;;12.29;100.00;101697.59;5068593;28;20048;-51
2022/07/11 00:48:33;;;;;;;1.13;0.10;;;;;;;12.25;100.00;101700.75;5047920;28;20088;-55
2022/07/11 00:51:02;;;;;;;0.45;0.45;;;;;;;12.11;100.00;101705.81;5062858;28;20028;-53
2022/07/11 00:53:28;;;;;;;2.83;0.45;;;;;;;11.99;100.00;101702.66;5038346;28;20108;-51
2022/07/11 00:55:54;;;;;;;0.30;0.20;;;;;;;11.95;100.00;101703.16;5054115;28;20031;-50
2022/07/11 00:58:19;;;;;;;0.40;0.40;;;;;;;11.88;100.00;101705.69;5057572;28;20089;-51
2022/07/11 01:00:45;;;;;;;0.38;0.38;;;;;;;11.88;100.00;101703.03;5061744;28;20050;-55
2022/07/11 01:03:11;;;;;;;1.00;0.32;;;;;;;11.89;100.00;101709.19;5057492;28;20129;-55
2022/07/11 01:05:37;;;;;;;9.68;1.58;;;;;;;11.84;100.00;101708.81;5055592;28;20494;-50
2022/07/11 01:08:03;;;;;;;2.05;0.20;;;;;;;11.77;100.00;101708.66;5050495;28;20376;-52
2022/07/11 01:10:28;;;;;;;1.95;0.20;;;;;;;11.68;100.00;101709.69;5061551;28;20025;-51
2022/07/11 01:12:54;;;;;;;0.17;0.10;;;;;;;11.65;100.00;101699.41;5057341;28;20107;-53
2022/07/11 01:15:19;;;;;;;0.80;0.80;;;;;;;11.67;100.00;101702.69;5056123;28;20116;-54
2022/07/11 01:17:45;;;;;;;0.20;0.20;;;;;;;11.68;100.00;101702.53;5055528;28;20604;-56
2022/07/11 01:20:11;;;;;;;2.85;1.02;;;;;;;11.67;100.00;101697.38;5054392;28;20506;-53
2022/07/11 01:22:43;;;;;;;0.30;0.17;;;;;;;11.59;100.00;101706.22;5057129;28;20029;-51
2022/07/11 01:25:09;;;;;;;0.40;0.40;;;;;;;11.47;100.00;101705.72;5055022;28;20088;-51
2022/07/11 01:27:35;;;;;;;1.15;0.10;;;;;;;11.35;100.00;101715.00;5060578;28;20040;-52
2022/07/11 01:30:01;;;;;;;2.50;0.50;;;;;;;11.35;100.00;101709.69;5060771;28;20381;-54
2022/07/11 01:32:26;;;;;;;9.70;0.63;;;;;;;11.36;100.00;101716.69;5061807;28;20028;-53
2022/07/11 01:34:51;;;;;;;0.28;0.28;;;;;;;11.33;100.00;101709.88;5066099;28;20513;-51
2022/07/11 01:37:17;;;;;;;0.30;0.30;;;;;;;11.34;100.00;101710.69;5056775;28;20032;-51
2022/07/11 01:39:42;;;;;;;1.50;0.30;;;;;;;11.35;100.00;101715.00;5053078;28;20033;-52
2022/07/11 01:42:07;;;;;;;0.30;0.20;;;;;;;11.33;100.00;101709.03;5056267;28;20043;-56
2022/07/11 01:44:33;;;;;;;1.55;0.40;;;;;;;11.30;100.00;101706.72;5058240;28;20423;-53
2022/07/11 01:46:58;;;;;;;0.20;0.20;;;;;;;11.25;100.00;101704.53;5054932;28;20067;-54
2022/07/11 01:49:23;;;;;;;0.40;0.30;;;;;;;11.22;100.00;101704.06;5057269;28;20036;-51
2022/07/11 01:51:49;;;;;;;0.15;0.15;;;;;;;11.19;100.00;101704.38;5053658;28;20125;-55
2022/07/11 01:54:15;;;;;;;2.05;0.30;;;;;;;11.22;100.00;101701.41;5054279;28;20032;-56
2022/07/11 01:56:40;;;;;;;1.15;0.25;;;;;;;11.19;100.00;101701.75;5054064;28;20047;-52
2022/07/11 01:59:06;;;;;;;1.05;0.60;;;;;;;11.11;100.00;101697.25;5050942;28;20051;-54
2022/07/11 02:01:32;;;;;;;0.63;0.35;;;;;;;11.13;100.00;101693.44;5065532;28;20036;-54
2022/07/11 02:03:58;;;;;;;0.25;0.25;;;;;;;11.11;100.00;101698.06;5048680;28;20124;-55
2022/07/11 02:06:24;;;;;;;1.13;0.85;;;;;;;11.10;100.00;101698.22;5052079;28;20036;-50
2022/07/11 02:08:49;;;;;;;0.68;0.40;;;;;;;11.08;100.00;101690.44;5053481;28;20033;-52
2022/07/11 02:11:15;;;;;;;1.77;0.15;;;;;;;11.11;100.00;101697.25;5054830;28;20749;-54
2022/07/11 02:13:40;;;;;;;0.55;0.28;;;;;;;11.17;100.00;101698.41;5060523;28;20104;-54
2022/07/11 02:16:06;;;;;;;0.73;0.50;;;;;;;11.21;100.00;101697.09;5062470;28;20035;-55
2022/07/11 02:18:34;;;;;;;1.08;0.73;;;;;;;11.22;100.00;101693.44;5063914;28;20037;-56
2022/07/11 02:21:00;;;;;;;0.95;0.30;;;;;;;11.21;100.00;101695.28;5060165;28;20028;-54
2022/07/11 02:23:25;;;;;;;0.28;0.28;;;;;;;11.22;100.00;101690.78;5056542;28;20115;-53
2022/07/11 02:25:51;;;;;;;0.73;0.28;;;;;;;11.22;100.00;101693.44;5064560;28;20111;-55
2022/07/11 02:28:16;;;;;;;0.20;0.10;;;;;;;11.24;100.00;101689.63;5047882;28;20029;-53
2022/07/11 02:30:43;;;;;;;3.00;1.42;;;;;;;11.26;100.00;101689.47;5056952;28;20092;-52
2022/07/11 02:33:15;;;;;;;1.60;0.45;;;;;;;11.22;100.00;101688.13;5059021;28;20476;-52
2022/07/11 02:35:42;;;;;;;0.80;0.45;;;;;;;11.14;100.00;101684.47;5067292;28;20027;-51
2022/07/11 02:38:08;;;;;;;3.03;1.50;;;;;;;11.13;100.00;101684.66;5052594;28;20153;-51
2022/07/11 02:40:33;;;;;;;1.17;0.55;;;;;;;11.07;100.00;101687.94;5057475;28;20484;-50
2022/07/11 02:42:58;;;;;;;3.40;0.52;;;;;;;11.00;100.00;101689.63;5050762;28;20017;-49
2022/07/11 02:45:24;;;;;;;1.38;0.20;;;;;;;10.96;100.00;101686.44;5059606;28;20401;-53
2022/07/11 02:47:50;;;;;;;1.10;0.40;;;;;;;10.96;100.00;101682.97;5036039;28;20389;-54
2022/07/11 02:50:15;;;;;;;1.10;0.40;;;;;;;10.91;100.00;101683.47;5058627;28;20033;-56
2022/07/11 02:52:41;;;;;;;1.95;0.40;;;;;;;10.86;100.00;101678.63;5058649;28;20044;-55
2022/07/11 02:55:11;;;;;;;0.28;0.20;;;;;;;10.79;100.00;101682.97;5057288;28;20547;-54
2022/07/11 02:57:39;;;;;;;1.45;0.43;;;;;;;10.73;100.00;101678.28;5055652;28;20508;-56
2022/07/11 03:00:06;;;;;;;0.52;0.25;;;;;;;10.66;100.00;101683.41;5059731;28;20028;-56
2022/07/11 03:02:31;;;;;;;0.40;0.32;;;;;;;10.62;100.00;101687.38;5057723;28;20035;-51
2022/07/11 03:04:57;;;;;;;1.17;0.85;;;;;;;10.62;100.00;101682.06;5059872;28;20456;-55
2022/07/11 03:07:26;;;;;;;0.20;0.20;;;;;;;10.61;100.00;101687.53;5065173;28;20476;-56
2022/07/11 03:09:52;;;;;;;0.55;0.55;;;;;;;10.57;100.00;101687.03;5056255;28;20496;-53
2022/07/11 03:12:18;;;;;;;0.52;0.47;;;;;;;10.53;100.00;101683.03;5066909;28;20130;-51
2022/07/11 03:14:43;;;;;;;0.30;0.30;;;;;;;10.48;100.00;101688.84;5062191;28;20115;-52
2022/07/11 03:17:08;;;;;;;0.40;0.40;;;;;;;10.51;100.00;101684.19;5034589;28;20477;-51
2022/07/11 03:19:34;;;;;;;1.17;0.40;;;;;;;10.56;100.00;101682.72;5068142;28;20074;-54
2022/07/11 03:21:59;;;;;;;0.98;0.30;;;;;;;10.58;100.00;101683.38;5068881;28;20538;-54
2022/07/11 03:24:24;;;;;;;0.30;0.30;;;;;;;10.61;100.00;101684.88;5051129;28;20033;-53
2022/07/11 03:26:50;;;;;;;0.28;0.28;;;;;;;10.61;100.00;101691.03;5068060;28;20363;-53
2022/07/11 03:29:15;;;;;;;0.60;0.57;;;;;;;10.62;100.00;101686.56;5059965;28;20393;-55
2022/07/11 03:31:40;;;;;;;1.00;0.50;;;;;;;10.63;100.00;101685.56;5065239;28;20115;-53
2022/07/11 03:34:06;;;;;;;1.98;0.10;;;;;;;10.66;100.00;101680.78;5063309;28;20167;-52
2022/07/11 03:36:31;;;;;;;0.50;0.43;;;;;;;10.69;100.00;101683.09;5063503;28;20040;-52
2022/07/11 03:38:58;;;;;;;0.30;0.30;;;;;;;10.74;100.00;101687.91;5060089;28;20024;-55
2022/07/11 03:41:24;;;;;;;0.60;0.20;;;;;;;10.74;100.00;101687.91;5070850;28;20537;-55
2022/07/11 03:43:49;;;;;;;0.30;0.20;;;;;;;10.72;100.00;101681.94;5057332;28;20161;-51
2022/07/11 03:46:14;;;;;;;0.38;0.38;;;;;;;10.70;100.00;101686.56;5075239;28;20390;-50
2022/07/11 03:48:40;;;;;;;0.20;0.17;;;;;;;10.65;100.00;101681.75;5055673;28;20029;-55
2022/07/11 03:51:05;;;;;;;1.98;0.25;;;;;;;10.62;100.00;101682.06;5062453;28;20388;-52
2022/07/11 03:53:31;;;;;;;2.78;0.50;;;;;;;10.59;100.00;101677.09;5065603;28;20087;-51
2022/07/11 03:55:56;;;;;;;0.75;0.55;;;;;;;10.57;100.00;101675.59;5069391;28;20029;-51
2022/07/11 03:58:21;;;;;;;0.40;0.20;;;;;;;10.54;100.00;101678.59;5061506;28;20436;-54
2022/07/11 04:00:46;;;;;;;3.65;0.40;;;;;;;10.52;100.00;101680.56;5057176;28;20478;-53
2022/07/11 04:03:12;;;;;;;2.47;0.15;;;;;;;10.47;100.00;101679.22;5053094;28;20389;-55
2022/07/11 04:05:37;;;;;;;1.70;0.10;;;;;;;10.41;100.00;101673.72;5057342;28;20439;-56
2022/07/11 04:08:03;;;;;;;0.20;0.10;;;;;;;10.35;100.00;101669.91;5061471;28;20044;-55
2022/07/11 04:10:28;;;;;;;0.20;0.20;;;;;;;10.36;100.00;101668.09;5051266;28;20029;-56
2022/07/11 04:12:54;;;;;;;1.27;0.10;;;;;;;10.38;100.00;101672.22;5064378;28;20025;-51
2022/07/11 04:15:19;;;;;;;0.50;0.20;;;;;;;10.44;100.00;101665.44;5046140;28;20393;-55
2022/07/11 04:17:45;;;;;;;0.30;0.10;;;;;;;10.43;100.00;101669.94;5058861;28;20119;-54
2022/07/11 04:20:10;;;;;;;0.30;0.30;;;;;;;10.43;100.00;101677.88;5064875;28;20045;-54
2022/07/11 04:22:36;;;;;;;0.73;0.50;;;;;;;10.43;100.00;101674.41;5058364;28;20036;-54
2022/07/11 04:25:01;;;;;;;0.30;0.30;;;;;;;10.42;100.00;101665.59;5048557;28;20116;-55
2022/07/11 04:27:26;;;;;;;0.60;0.50;;;;;;;10.42;100.00;101672.72;5054223;28;20104;-54
2022/07/11 04:29:52;;;;;;;0.65;0.47;;;;;;;10.36;100.00;101674.22;5056097;28;20032;-55
2022/07/11 04:32:18;;;;;;;0.77;0.20;;;;;;;10.33;100.00;101676.38;5062864;28;20036;-54
2022/07/11 04:34:43;;;;;;;0.63;0.40;;;;;;;10.25;100.00;101674.47;5056747;28;20074;-55
2022/07/11 04:37:09;;;;;;;0.50;0.50;;;;;;;10.18;100.00;101668.16;5050825;28;20429;-55
2022/07/11 04:39:34;;;;;;;0.55;0.20;;;;;;;10.12;100.00;101669.63;5047198;28;20556;-54
2022/07/11 04:42:00;;;;;;;0.65;0.47;;;;;;;10.09;100.00;101669.09;5057647;28;20072;-50
2022/07/11 04:44:27;;;;;;;0.20;0.20;;;;;;;10.11;100.00;101656.50;5061168;28;20143;-50
2022/07/11 04:46:52;;;;;;;0.52;0.52;;;;;;;10.12;100.00;101660.81;5059605;28;20137;-55
2022/07/11 04:49:18;;;;;;;0.47;0.30;;;;;;;10.13;100.00;101663.31;5055431;28;20445;-55
2022/07/11 04:51:44;;;;;;;0.95;0.20;;;;;;;10.16;100.00;101670.94;5058949;28;20036;-51
2022/07/11 04:54:09;;;;;;;0.70;0.70;;;;;;;10.16;100.00;101686.84;5059595;28;20048;-52
2022/07/11 04:56:34;;;;;;;0.50;0.50;;;;;;;10.18;100.00;101684.03;5045364;28;20973;-53
2022/07/11 04:59:00;;;;;;;0.57;0.40;;;;;;;10.22;100.00;101686.22;5053336;28;20454;-52
2022/07/11 05:01:25;;;;;;;0.10;0.10;;;;;;;10.26;100.00;101697.34;5058608;28;20458;-52
2022/07/11 05:03:51;;;;;;;0.45;0.40;;;;;;;10.30;100.00;101696.06;5036439;28;20025;-53
2022/07/11 05:06:17;;;;;;;2.45;0.40;;;;;;;10.36;100.00;101694.59;5060385;28;20490;-53
2022/07/11 05:08:42;;;;;;;0.10;0.10;;;;;;;10.43;100.00;101692.97;5055595;28;20044;-53
2022/07/11 05:11:07;;;;;;;2.72;0.40;;;;;;;10.51;100.00;101693.00;5050311;28;20436;-55
2022/07/11 05:13:33;;;;;;;1.15;1.13;;;;;;;10.61;100.00;101693.69;5059968;28;20108;-50
2022/07/11 05:15:58;;;;;;;0.85;0.38;;;;;;;10.69;100.00;101688.41;5055148;28;20033;-53
2022/07/11 05:18:23;;;;;;;0.60;0.40;;;;;;;10.78;100.00;101706.97;5063276;28;20063;-56
2022/07/11 05:20:49;;;;;;;0.30;0.30;;;;;;;10.79;100.00;101709.50;5065116;28;20055;-50
2022/07/11 05:23:15;;;;;;;0.43;0.40;;;;;;;10.79;100.00;101698.88;5056047;28;20436;-49
2022/07/11 05:25:40;;;;;;;3.65;0.82;;;;;;;10.86;100.00;101699.84;5059964;28;20051;-55
2022/07/11 05:28:06;;;;;;;0.43;0.30;;;;;;;10.97;100.00;101697.88;5056274;28;20074;-55
2022/07/11 05:30:32;;;;;;;0.68;0.57;;;;;;;11.09;100.00;101700.06;5058312;28;20037;-54
2022/07/11 05:32:57;;;;;;;0.32;0.15;;;;;;;11.24;100.00;101702.91;5063219;28;20047;-56
2022/07/11 05:35:23;;;;;;;0.95;0.20;;;;;;;11.39;100.00;101704.91;5053909;28;20066;-52
2022/07/11 05:37:48;;;;;;;0.30;0.30;;;;;;;11.51;100.00;101707.06;5043782;28;20036;-50
2022/07/11 05:40:13;;;;;;;1.73;0.20;;;;;;;11.57;100.00;101703.72;5052455;28;20089;-51
2022/07/11 05:42:39;;;;;;;0.98;0.47;;;;;;;11.65;100.00;101707.38;5059019;28;20025;-53
2022/07/11 05:45:04;;;;;;;0.43;0.40;;;;;;;11.68;100.00;101705.19;5066124;28;20085;-55
2022/07/11 05:47:30;;;;;;;1.20;0.73;;;;;;;11.73;100.00;101702.88;5060315;28;20462;-52
2022/07/11 05:49:55;;;;;;;0.98;0.60;;;;;;;11.81;100.00;101709.16;5054846;28;20028;-56
2022/07/11 05:52:20;;;;;;;0.65;0.45;;;;;;;11.90;100.00;101703.72;5058538;28;20047;-56
2022/07/11 05:54:46;;;;;;;0.98;0.65;;;;;;;11.97;100.00;101704.66;5059161;28;20389;-52
2022/07/11 05:57:11;;;;;;;2.20;0.75;;;;;;;12.11;100.00;101702.31;5051641;28;20068;-53
2022/07/11 05:59:38;;;;;;;0.22;0.22;;;;;;;12.21;100.00;101705.59;5062336;28;20036;-50
2022/07/11 06:02:03;;;;;;;0.98;0.35;;;;;;;12.29;100.00;101707.38;5053285;28;20409;-56
2022/07/11 06:04:29;;;;;;;0.43;0.30;;;;;;;12.36;100.00;101709.19;5051061;28;20037;-54
2022/07/11 06:06:54;;;;;;;1.17;0.30;;;;;;;12.46;100.00;101710.81;5049344;28;20021;-54
2022/07/11 06:09:20;;;;;;;1.20;0.52;;;;;;;12.62;100.00;101718.69;5063010;28;20025;-53
2022/07/11 06:11:45;;;;;;;2.35;0.60;;;;;;;12.73;100.00;101714.84;5051803;28;20571;-50
2022/07/11 06:14:10;;;;;;;1.80;0.60;;;;;;;12.80;100.00;101713.13;5053718;28;21270;-56
2022/07/11 06:16:36;;;;;;;0.43;0.40;;;;;;;12.94;100.00;101711.56;5063723;28;20028;-51
2022/07/11 06:19:02;;;;;;;2.08;0.45;;;;;;;13.07;100.00;101722.44;5049251;28;20042;-56
2022/07/11 06:21:27;;;;;;;1.95;0.90;;;;;;;13.21;100.00;101726.16;5064309;28;20189;-53
2022/07/11 06:23:54;;;;;;;0.95;0.80;;;;;;;13.37;100.00;101730.56;5059985;28;20037;-51
2022/07/11 06:26:20;;;;;;;5.78;0.28;;;;;;;13.62;100.00;101726.69;5058020;28;20036;-52
2022/07/11 06:28:45;;;;;;;0.50;0.43;;;;;;;13.87;100.00;101721.94;5056217;28;20031;-51
2022/07/11 06:31:10;;;;;;;0.47;0.30;;;;;;;14.02;100.00;101726.44;5059109;28;20480;-55
2022/07/11 06:33:37;;;;;;;0.95;0.40;;;;;;;14.15;100.00;101716.81;5066400;28;20024;-52
2022/07/11 06:36:04;;;;;;;0.65;0.40;;;;;;;14.31;100.00;101717.63;5066749;28;20469;-53
2022/07/11 06:38:30;;;;;;;0.75;0.75;;;;;;;14.50;100.00;101710.88;5053191;28;20033;-52
2022/07/11 06:40:55;;;;;;;2.30;0.60;;;;;;;14.71;100.00;101710.13;5053924;28;20115;-52
2022/07/11 06:43:21;;;;;;;0.68;0.55;;;;;;;14.96;100.00;101703.41;5053095;28;20103;-52
2022/07/11 06:45:47;;;;;;;0.40;0.40;;;;;;;15.15;100.00;101719.81;5049201;28;20041;-48
2022/07/11 06:48:13;;;;;;;0.30;0.20;;;;;;;15.30;100.00;101704.56;5052201;28;20153;-48
2022/07/11 06:50:39;;;;;;;1.85;0.60;;;;;;;15.45;100.00;101702.63;5053490;28;20422;-51
2022/07/11 06:53:05;;;;;;;0.98;0.60;;;;;;;15.62;100.00;101702.34;5049880;28;20060;-53
2022/07/11 06:55:31;;;;;;;1.92;0.40;;;;;;;15.88;100.00;101696.41;5047638;28;20491;-47
2022/07/11 06:57:57;;;;;;;4.03;0.52;;;;;;;16.09;100.00;101695.47;5045988;28;20036;-51
2022/07/11 07:00:22;;;;;;;0.45;0.40;;;;;;;16.35;100.00;101695.59;5030706;28;20442;-49
2022/07/11 07:02:47;;;;;;;0.32;0.30;;;;;;;16.52;100.00;101680.03;5048797;28;20060;-51
2022/07/11 07:05:13;;;;;;;0.08;0.08;;;;;;;16.77;100.00;101680.31;5054902;28;20452;-50
2022/07/11 07:07:38;;;;;;;0.15;0.15;;;;;;;17.02;100.00;101676.25;5050138;28;20330;-54
2022/07/11 07:10:04;;;;;;;1.05;0.60;;;;;;;17.22;100.00;101679.75;5056079;28;20497;-50
2022/07/11 07:12:30;;;;;;;0.20;0.13;;;;;;;17.47;100.00;101676.44;5051782;28;20035;-51
2022/07/11 07:14:55;;;;;;;2.22;0.20;;;;;;;17.76;100.00;101662.59;5048648;28;20025;-55
2022/07/11 07:17:21;;;;;;;1.95;0.20;;;;;;;18.08;100.00;101671.59;5053173;28;20548;-54
2022/07/11 07:19:46;;;;;;;0.47;0.22;;;;;;;18.33;100.00;101659.31;5050575;28;20037;-55
2022/07/11 07:22:15;;;;;;;2.55;0.40;;;;;;;18.51;100.00;101643.34;5054324;28;20029;-51
2022/07/11 07:24:41;;;;;;;0.22;0.10;;;;;;;18.63;100.00;101638.91;5048106;28;20029;-49
2022/07/11 07:27:07;;;;;;;3.10;0.32;;;;;;;18.80;100.00;101633.88;5051860;28;20425;-50
2022/07/11 07:29:32;;;;;;;0.40;0.40;;;;;;;18.98;100.00;101638.50;5047688;28;20862;-55
2022/07/11 07:31:59;;;;;;;0.10;0.10;;;;;;;19.24;100.00;101642.00;5055225;28;20480;-55
2022/07/11 07:34:24;;;;;;;1.83;0.17;;;;;;;19.47;100.00;101636.81;5051257;28;20025;-57
2022/07/11 07:36:49;;;;;;;0.90;0.60;;;;;;;19.70;100.00;101621.94;5055118;28;20056;-54
2022/07/11 07:39:15;;;;;;;0.32;0.20;;;;;;;19.81;100.00;101622.00;5051948;28;20404;-54
2022/07/11 07:41:40;;;;;;;0.08;0.00;;;;;;;20.00;100.00;101621.97;5052257;28;20021;-50
2022/07/11 07:44:06;;;;;;;0.30;0.30;;;;;;;20.30;100.00;101610.41;5059952;28;20108;-56
2022/07/11 07:46:31;;;;;;;3.10;0.63;;;;;;;20.58;100.00;101610.66;5056103;28;20263;-59
2022/07/11 07:48:57;;;;;;;0.73;0.52;;;;;;;20.85;100.00;101618.31;5056628;28;20388;-59
2022/07/11 07:51:22;;;;;;;0.60;0.50;;;;;;;21.06;100.00;101615.06;5058978;28;20098;-58
2022/07/11 07:53:48;;;;;;;0.15;0.15;;;;;;;21.28;100.00;101614.50;5057086;28;20035;-49
2022/07/11 07:56:13;;;;;;;0.22;0.22;;;;;;;21.45;100.00;101607.38;5063917;28;20119;-50
2022/07/11 07:58:39;;;;;;;0.52;0.52;;;;;;;21.60;100.00;101606.06;5064649;28;20111;-57
2022/07/11 08:03:50;;;;;;;1.48;0.20;;;;;;;21.82;100.00;101609.78;5057714;28;20043;-52
2022/07/11 08:06:15;;;;;;;1.50;0.50;;;;;;;22.05;100.00;101606.19;5063217;28;20031;-48
2022/07/11 08:08:41;;;;;;;0.35;0.20;;;;;;;22.22;100.00;101600.84;5057600;28;20126;-45
2022/07/11 08:11:06;;;;;;;1.17;0.30;;;;;;;22.35;100.00;101605.13;5056640;28;20053;-47
2022/07/11 08:13:31;;;;;;;0.10;0.00;;;;;;;22.46;100.00;101604.28;5056292;28;20483;-50
2022/07/11 08:15:57;;;;;;;3.47;0.60;;;;;;;22.47;100.00;101605.91;5051484;28;20024;-45
2022/07/11 08:18:22;;;;;;;1.65;0.00;;;;;;;22.54;100.00;101608.47;5060862;28;20398;-44
2022/07/11 08:20:48;;;;;;;0.82;0.20;;;;;;;22.68;100.00;101609.78;5056216;28;20634;-46
2022/07/11 08:23:13;;;;;;;0.63;0.22;;;;;;;22.77;100.00;101610.19;5057605;28;20382;-50
2022/07/11 08:25:39;;;;;;;3.15;0.20;;;;;;;22.79;100.00;101610.75;5060046;28;20122;-58
2022/07/11 08:28:05;;;;;;;0.20;0.15;;;;;;;22.85;100.00;101610.63;5064105;28;20085;-46
2022/07/11 08:30:31;;;;;;;0.47;0.10;;;;;;;23.05;100.00;101609.31;5055590;28;20029;-54
2022/07/11 08:32:57;;;;;;;0.10;0.10;;;;;;;23.19;100.00;101607.09;5065967;28;20052;-49
2022/07/11 08:35:22;;;;;;;0.60;0.17;;;;;;;23.35;100.00;101603.53;5065263;28;20456;-58
2022/07/11 08:37:48;;;;;;;0.00;0.00;;;;;;;23.39;100.00;101599.28;5064331;28;20337;-54
2022/07/11 08:40:14;;;;;;;1.17;0.10;;;;;;;23.60;100.00;101586.03;5056026;28;20036;-48
2022/07/11 08:42:44;;;;;;;1.77;0.22;;;;;;;23.86;100.00;101598.00;5056712;28;20024;-58
2022/07/11 08:45:16;;;;;;;0.13;0.10;;;;;;;23.73;100.00;101588.38;5064203;28;20432;-59
2022/07/11 08:47:43;;;;;;;0.85;0.35;;;;;;;23.76;100.00;101595.19;5063691;28;20500;-50
2022/07/11 08:50:11;;;;;;;2.97;0.20;;;;;;;23.81;100.00;101589.84;5056419;28;20125;-54
2022/07/11 08:52:37;;;;;;;1.52;0.30;;;;;;;24.10;100.00;101591.22;5063598;28;20559;-50
2022/07/11 08:55:06;;;;;;;0.08;0.00;;;;;;;24.09;100.00;101589.59;5060122;28;20473;-48
2022/07/11 08:57:34;;;;;;;0.55;0.10;;;;;;;24.40;100.00;101583.69;5057237;28;20028;-53
2022/07/11 09:00:00;;;;;;;1.15;0.10;;;;;;;24.63;100.00;101582.53;5053089;28;20036;-55
2022/07/11 09:02:27;;;;;;;0.65;0.03;;;;;;;24.77;100.00;101578.31;5068863;28;20025;-56
2022/07/11 09:04:52;;;;;;;1.77;0.17;;;;;;;25.00;100.00;101588.81;5061543;28;20372;-45
2022/07/11 09:07:17;;;;;;;0.52;0.20;;;;;;;25.00;100.00;101579.84;5061409;28;20123;-54
2022/07/11 09:09:44;;;;;;;1.00;0.25;;;;;;;24.70;100.00;101583.97;5052758;28;20048;-52
2022/07/11 09:12:15;;;;;;;0.80;0.10;;;;;;;24.97;100.00;101583.91;5062642;28;20035;-46
2022/07/11 09:14:45;;;;;;;;;;;;;;;25.22;100.00;101582.44;5061945;28;20036;-45
2022/07/11 09:17:11;;;;;;;0.40;0.22;;;;;;;25.38;100.00;101581.47;5056831;28;20433;-58
2022/07/11 09:19:39;;;;;;;0.45;0.10;;;;;;;25.36;100.00;101577.38;5056563;28;20142;-58
2022/07/11 09:27:43;;;;;;;0.32;0.22;;;;;;;26.00;100.00;101576.31;5059682;28;20421;-48
2022/07/11 09:30:16;;;;;;;0.30;0.10;;;;;;;26.14;100.00;101571.97;5053506;28;20043;-49
2022/07/11 09:32:54;;;;;;;0.70;0.10;;;;;;;26.22;100.00;101568.72;5060852;28;20112;-55
2022/07/11 09:35:19;;;;;;;0.20;0.00;;;;;;;26.24;100.00;101569.28;5061392;28;20067;-56
2022/07/11 09:37:45;;;;;;;0.40;0.10;;;;;;;26.28;100.00;101564.94;5064076;28;20067;-53
2022/07/11 09:40:12;;;;;;;0.55;0.03;;;;;;;26.54;100.00;101554.91;5053444;28;20074;-56
2022/07/11 09:42:52;;;;;;;0.20;0.10;;;;;;;26.69;100.00;101559.53;5063412;28;20017;-58
2022/07/11 09:45:36;;;;;;;1.00;0.20;;;;;;;26.82;98.42;101557.34;5048155;28;20024;-48
2022/07/11 09:48:10;;;;;;;0.73;0.00;;;;;;;26.95;100.00;101548.59;5070174;28;20035;-51
2022/07/11 09:50:35;;;;;;;5.78;0.20;;;;;;;26.86;100.00;101550.28;5060910;28;20476;-61
2022/07/11 09:53:11;;;;;;;6.82;0.47;;;;;;;26.65;99.42;101546.75;5054054;28;20068;-51
2022/07/11 09:55:44;;;;;;;0.10;0.00;;;;;;;26.80;95.43;101543.19;5053612;28;20069;-48
2022/07/11 09:58:11;;;;;;;0.20;0.00;;;;;;;26.99;95.55;101546.97;5049981;28;20028;-50
2022/07/11 10:00:38;;;;;;;3.42;0.00;;;;;;;27.24;96.12;101545.31;5040491;28;20020;-54
2022/07/11 10:03:05;;;;;;;2.28;0.10;;;;;;;27.40;93.98;101539.53;5072430;28;20465;-54
2022/07/11 10:05:31;;;;;;;2.55;0.13;;;;;;;27.47;94.29;101546.56;5063773;28;20432;-50
2022/07/11 10:07:57;;;;;;;0.35;0.10;;;;;;;27.67;89.27;101537.50;5061407;28;20317;-56
2022/07/11 10:10:24;;;;;;;0.20;0.20;;;;;;;27.81;88.45;101539.34;5056708;28;20033;-55
2022/07/11 10:12:54;;;;;;;0.20;0.00;;;;;;;27.94;82.77;101537.13;5058178;28;20138;-49
2022/07/11 10:15:35;;;;;;;0.30;0.30;;;;;;;27.96;78.70;101549.34;5057322;28;20025;-52
2022/07/11 10:18:07;;;;;;;0.35;0.10;;;;;;;28.00;77.57;101544.97;5057047;28;20123;-51
2022/07/11 10:20:48;;;;;;;1.00;0.10;;;;;;;28.11;78.31;101539.44;5055178;28;20033;-55
2022/07/11 10:23:26;;;;;;;0.75;0.52;;;;;;;28.20;78.00;101540.47;5057313;28;20043;-59
2022/07/11 10:26:28;;;;;;;1.02;0.10;;;;;;;28.24;76.25;101536.06;5054597;28;20132;-58
2022/07/11 10:28:59;;;;;;;0.43;0.22;;;;;;;28.36;71.23;101530.25;5057173;28;20414;-48
2022/07/11 10:31:25;;;;;;;7.07;0.55;;;;;;;28.48;74.56;101541.66;5064370;28;20036;-50
2022/07/11 10:34:04;;;;;;;0.10;0.10;;;;;;;28.68;72.83;101536.00;5061408;28;20116;-58
2022/07/11 10:36:41;;;;;;;0.75;0.10;;;;;;;28.76;74.86;101533.72;5053969;28;20515;-49
2022/07/11 10:39:17;;;;;;;0.20;0.10;;;;;;;28.81;70.15;101539.13;5055529;28;20334;-58
2022/07/11 10:41:43;;;;;;;0.43;0.15;;;;;;;28.70;73.48;101532.97;5055732;28;20028;-57
2022/07/11 10:44:09;;;;;;;0.50;0.13;;;;;;;28.87;71.87;101535.28;5054227;28;20089;-52
2022/07/11 10:46:35;;;;;;;3.03;0.30;;;;;;;28.75;70.25;101527.47;5040036;28;20425;-49
2022/07/11 10:49:09;;;;;;;0.43;0.20;;;;;;;28.73;69.33;101528.84;5057603;28;20033;-57
2022/07/11 10:51:44;;;;;;;0.43;0.00;;;;;;;28.85;67.78;101523.81;5053306;28;20505;-55
2022/07/11 10:54:35;;;;;;;2.33;0.22;;;;;;;28.72;61.63;101514.41;5057810;28;20474;-56
2022/07/11 10:57:16;;;;;;;;;;;;;;;28.67;63.29;101509.00;5056423;28;20040;-62
2022/07/11 11:00:04;;;;;;;0.20;0.20;;;;;;;28.78;64.48;101515.97;5052423;28;19920;-58
2022/07/11 11:02:31;;;;;;;0.85;0.17;;;;;;;28.94;64.82;101516.66;5057315;28;20032;-55
2022/07/11 11:04:59;;;;;;;0.22;0.17;;;;;;;29.18;66.86;101518.59;5057994;28;20093;-55
2022/07/11 11:07:42;;;;;;;2.35;0.30;;;;;;;29.59;62.66;101507.94;5058189;28;20517;-47
2022/07/11 11:10:07;;;;;;;0.30;0.25;;;;;;;29.72;65.70;101512.72;5049549;28;20021;-56
2022/07/11 11:13:09;;;;;;;3.13;0.85;;;;;;;29.83;63.88;101507.09;5054429;28;20029;-56
2022/07/11 11:15:34;;;;;;;0.60;0.20;;;;;;;29.69;65.17;101512.50;5051123;28;21098;-53
2022/07/11 11:18:22;;;;;;;0.32;0.32;;;;;;;29.71;63.42;101511.06;5054247;28;20016;-59
2022/07/11 11:21:09;;;;;;;0.40;0.17;;;;;;;29.89;62.29;101508.63;5056975;28;20036;-53
2022/07/11 11:23:36;;;;;;;0.25;0.10;;;;;;;30.05;62.18;101511.94;5044721;28;20645;-54
2022/07/11 11:26:08;;;;;;;0.70;0.20;;;;;;;30.24;61.44;101506.47;5051781;28;20025;-56
2022/07/11 11:28:34;;;;;;;0.50;0.20;;;;;;;30.20;61.18;101500.75;5051806;28;20025;-44